sensor_id;sensor_type;location;lat;lon;timestamp;P1;durP1;ratioP1;P2;durP2;ratioP2
10717;SDS011;13513;42.700;23.124;2023-02-23T00:00:05;7.63;;;4.43;;
10717;SDS011;13513;42.700;23.124;2023-02-23T00:02:48;5.73;;;3.90;;
10717;SDS011;13513;42.700;23.124;2023-02-23T00:05:21;7.17;;;4.03;;
10717;SDS011;13513;42.700;23.124;2023-02-23T00:07:53;6.20;;;4.13;;
10717;SDS011;13513;42.700;23.124;2023-02-23T00:10:23;4.60;;;3.77;;
10717;SDS011;13513;42.700;23.124;2023-02-23T00:13:01;7.07;;;4.40;;
10717;SDS011;13513;42.700;23.124;2023-02-23T00:15:30;5.17;;;3.80;;
10717;SDS011;13513;42.700;23.124;2023-02-23T00:18:01;7.20;;;4.20;;
10717;SDS011;13513;42.700;23.124;2023-02-23T00:20:33;4.93;;;3.80;;
10717;SDS011;13513;42.700;23.124;2023-02-23T00:23:04;5.10;;;3.90;;
10717;SDS011;13513;42.700;23.124;2023-02-23T00:25:36;5.67;;;4.20;;
10717;SDS011;13513;42.700;23.124;2023-02-23T00:28:05;6.23;;;4.43;;
10717;SDS011;13513;42.700;23.124;2023-02-23T00:30:36;9.27;;;4.70;;
10717;SDS011;13513;42.700;23.124;2023-02-23T00:33:07;8.23;;;4.60;;
10717;SDS011;13513;42.700;23.124;2023-02-23T00:35:37;6.90;;;4.37;;
10717;SDS011;13513;42.700;23.124;2023-02-23T00:38:09;5.87;;;4.23;;
10717;SDS011;13513;42.700;23.124;2023-02-23T00:40:40;5.93;;;4.33;;
10717;SDS011;13513;42.700;23.124;2023-02-23T00:43:11;7.10;;;4.70;;
10717;SDS011;13513;42.700;23.124;2023-02-23T00:45:42;6.80;;;4.73;;
10717;SDS011;13513;42.700;23.124;2023-02-23T00:48:13;8.60;;;4.73;;
10717;SDS011;13513;42.700;23.124;2023-02-23T00:50:44;7.80;;;4.30;;
10717;SDS011;13513;42.700;23.124;2023-02-23T00:53:15;5.33;;;3.80;;
10717;SDS011;13513;42.700;23.124;2023-02-23T00:55:45;7.53;;;4.57;;
10717;SDS011;13513;42.700;23.124;2023-02-23T00:58:17;6.50;;;4.43;;
10717;SDS011;13513;42.700;23.124;2023-02-23T01:00:47;8.20;;;4.73;;
10717;SDS011;13513;42.700;23.124;2023-02-23T01:03:17;6.97;;;4.90;;
10717;SDS011;13513;42.700;23.124;2023-02-23T01:05:48;7.37;;;4.60;;
10717;SDS011;13513;42.700;23.124;2023-02-23T01:08:20;7.03;;;5.03;;
10717;SDS011;13513;42.700;23.124;2023-02-23T01:10:51;6.80;;;4.20;;
10717;SDS011;13513;42.700;23.124;2023-02-23T01:13:22;5.60;;;4.27;;
10717;SDS011;13513;42.700;23.124;2023-02-23T01:15:54;7.83;;;4.50;;
10717;SDS011;13513;42.700;23.124;2023-02-23T01:18:25;7.17;;;4.37;;
10717;SDS011;13513;42.700;23.124;2023-02-23T01:20:56;5.70;;;4.27;;
10717;SDS011;13513;42.700;23.124;2023-02-23T01:23:27;7.97;;;4.63;;
10717;SDS011;13513;42.700;23.124;2023-02-23T01:26:01;7.23;;;5.07;;
10717;SDS011;13513;42.700;23.124;2023-02-23T01:28:33;6.87;;;4.67;;
10717;SDS011;13513;42.700;23.124;2023-02-23T01:31:09;6.10;;;4.50;;
10717;SDS011;13513;42.700;23.124;2023-02-23T01:33:39;6.37;;;4.70;;
10717;SDS011;13513;42.700;23.124;2023-02-23T01:36:11;8.10;;;4.83;;
10717;SDS011;13513;42.700;23.124;2023-02-23T01:38:42;7.13;;;5.10;;
10717;SDS011;13513;42.700;23.124;2023-02-23T01:41:13;7.23;;;4.80;;
10717;SDS011;13513;42.700;23.124;2023-02-23T01:43:59;9.13;;;4.90;;
10717;SDS011;13513;42.700;23.124;2023-02-23T01:46:32;6.83;;;4.70;;
10717;SDS011;13513;42.700;23.124;2023-02-23T01:49:05;8.73;;;5.00;;
10717;SDS011;13513;42.700;23.124;2023-02-23T01:51:41;5.20;;;4.20;;
10717;SDS011;13513;42.700;23.124;2023-02-23T01:54:14;6.47;;;4.90;;
10717;SDS011;13513;42.700;23.124;2023-02-23T01:56:44;8.17;;;5.00;;
10717;SDS011;13513;42.700;23.124;2023-02-23T01:59:16;8.10;;;5.27;;
10717;SDS011;13513;42.700;23.124;2023-02-23T02:01:47;7.97;;;4.87;;
10717;SDS011;13513;42.700;23.124;2023-02-23T02:04:17;6.47;;;4.90;;
10717;SDS011;13513;42.700;23.124;2023-02-23T02:06:49;8.87;;;5.03;;
10717;SDS011;13513;42.700;23.124;2023-02-23T02:09:21;8.47;;;5.07;;
10717;SDS011;13513;42.700;23.124;2023-02-23T02:11:53;9.50;;;5.53;;
10717;SDS011;13513;42.700;23.124;2023-02-23T02:14:27;6.73;;;4.83;;
10717;SDS011;13513;42.700;23.124;2023-02-23T02:39:58;8.43;;;4.80;;
10717;SDS011;13513;42.700;23.124;2023-02-23T02:42:50;8.13;;;5.23;;
10717;SDS011;13513;42.700;23.124;2023-02-23T02:45:24;7.20;;;5.37;;
10717;SDS011;13513;42.700;23.124;2023-02-23T02:47:58;9.30;;;5.70;;
10717;SDS011;13513;42.700;23.124;2023-02-23T02:53:10;8.07;;;5.63;;
10717;SDS011;13513;42.700;23.124;2023-02-23T02:55:43;8.70;;;5.90;;
10717;SDS011;13513;42.700;23.124;2023-02-23T02:58:15;8.73;;;5.60;;
10717;SDS011;13513;42.700;23.124;2023-02-23T03:00:47;11.17;;;5.53;;
10717;SDS011;13513;42.700;23.124;2023-02-23T03:03:34;8.43;;;5.87;;
10717;SDS011;13513;42.700;23.124;2023-02-23T03:06:26;10.77;;;5.60;;
10717;SDS011;13513;42.700;23.124;2023-02-23T03:09:19;9.90;;;5.80;;
10717;SDS011;13513;42.700;23.124;2023-02-23T03:12:25;7.57;;;5.30;;
10717;SDS011;13513;42.700;23.124;2023-02-23T03:18:39;12.00;;;5.53;;
10717;SDS011;13513;42.700;23.124;2023-02-23T03:21:49;8.20;;;5.80;;
10717;SDS011;13513;42.700;23.124;2023-02-23T03:24:38;9.47;;;6.20;;
10717;SDS011;13513;42.700;23.124;2023-02-23T03:30:28;13.10;;;6.30;;
10717;SDS011;13513;42.700;23.124;2023-02-23T03:33:34;12.50;;;6.73;;
10717;SDS011;13513;42.700;23.124;2023-02-23T03:36:26;11.50;;;6.47;;
10717;SDS011;13513;42.700;23.124;2023-02-23T03:39:23;11.57;;;6.93;;
10717;SDS011;13513;42.700;23.124;2023-02-23T03:42:10;11.87;;;6.73;;
10717;SDS011;13513;42.700;23.124;2023-02-23T03:44:57;10.33;;;6.33;;
10717;SDS011;13513;42.700;23.124;2023-02-23T03:47:45;10.13;;;6.27;;
10717;SDS011;13513;42.700;23.124;2023-02-23T03:50:34;9.03;;;6.10;;
10717;SDS011;13513;42.700;23.124;2023-02-23T03:53:32;10.53;;;6.33;;
10717;SDS011;13513;42.700;23.124;2023-02-23T03:56:16;10.30;;;5.50;;
10717;SDS011;13513;42.700;23.124;2023-02-23T03:59:05;8.33;;;5.10;;
10717;SDS011;13513;42.700;23.124;2023-02-23T04:01:53;9.30;;;5.13;;
10717;SDS011;13513;42.700;23.124;2023-02-23T04:04:41;9.70;;;5.17;;
10717;SDS011;13513;42.700;23.124;2023-02-23T04:07:29;7.37;;;5.03;;
10717;SDS011;13513;42.700;23.124;2023-02-23T04:10:17;6.33;;;4.70;;
10717;SDS011;13513;42.700;23.124;2023-02-23T04:13:06;10.63;;;5.50;;
10717;SDS011;13513;42.700;23.124;2023-02-23T04:15:48;9.43;;;4.90;;
10717;SDS011;13513;42.700;23.124;2023-02-23T04:18:26;10.03;;;5.40;;
10717;SDS011;13513;42.700;23.124;2023-02-23T04:20:57;6.13;;;4.67;;
10717;SDS011;13513;42.700;23.124;2023-02-23T04:23:29;6.93;;;4.87;;
10717;SDS011;13513;42.700;23.124;2023-02-23T04:26:00;8.83;;;5.30;;
10717;SDS011;13513;42.700;23.124;2023-02-23T04:28:31;7.87;;;4.90;;
10717;SDS011;13513;42.700;23.124;2023-02-23T04:31:02;6.57;;;4.40;;
10717;SDS011;13513;42.700;23.124;2023-02-23T04:33:32;7.53;;;4.93;;
10717;SDS011;13513;42.700;23.124;2023-02-23T04:36:03;7.57;;;4.87;;
10717;SDS011;13513;42.700;23.124;2023-02-23T04:38:34;8.23;;;5.10;;
10717;SDS011;13513;42.700;23.124;2023-02-23T04:41:05;8.50;;;4.90;;
10717;SDS011;13513;42.700;23.124;2023-02-23T04:43:36;7.87;;;5.23;;
10717;SDS011;13513;42.700;23.124;2023-02-23T04:46:07;5.93;;;4.37;;
10717;SDS011;13513;42.700;23.124;2023-02-23T04:48:38;8.03;;;4.53;;
10717;SDS011;13513;42.700;23.124;2023-02-23T04:51:11;6.93;;;5.27;;
10717;SDS011;13513;42.700;23.124;2023-02-23T04:53:48;8.23;;;5.30;;
10717;SDS011;13513;42.700;23.124;2023-02-23T04:56:17;8.97;;;5.30;;
10717;SDS011;13513;42.700;23.124;2023-02-23T04:58:48;5.90;;;4.80;;
10717;SDS011;13513;42.700;23.124;2023-02-23T05:01:18;6.90;;;4.90;;
10717;SDS011;13513;42.700;23.124;2023-02-23T05:03:49;9.73;;;5.70;;
10717;SDS011;13513;42.700;23.124;2023-02-23T05:06:20;8.03;;;5.13;;
10717;SDS011;13513;42.700;23.124;2023-02-23T05:08:51;11.00;;;5.90;;
10717;SDS011;13513;42.700;23.124;2023-02-23T05:11:22;9.10;;;6.03;;
10717;SDS011;13513;42.700;23.124;2023-02-23T05:13:53;9.93;;;5.50;;
10717;SDS011;13513;42.700;23.124;2023-02-23T05:16:24;7.93;;;5.50;;
10717;SDS011;13513;42.700;23.124;2023-02-23T05:18:56;6.33;;;4.93;;
10717;SDS011;13513;42.700;23.124;2023-02-23T05:21:27;7.87;;;5.87;;
10717;SDS011;13513;42.700;23.124;2023-02-23T05:23:56;8.83;;;6.13;;
10717;SDS011;13513;42.700;23.124;2023-02-23T05:26:26;8.87;;;6.07;;
10717;SDS011;13513;42.700;23.124;2023-02-23T05:28:57;12.70;;;8.47;;
10717;SDS011;13513;42.700;23.124;2023-02-23T05:31:27;12.17;;;8.10;;
10717;SDS011;13513;42.700;23.124;2023-02-23T05:33:58;13.53;;;8.47;;
10717;SDS011;13513;42.700;23.124;2023-02-23T05:36:29;11.00;;;7.43;;
10717;SDS011;13513;42.700;23.124;2023-02-23T05:39:00;10.43;;;7.20;;
10717;SDS011;13513;42.700;23.124;2023-02-23T05:41:31;11.97;;;7.37;;
10717;SDS011;13513;42.700;23.124;2023-02-23T05:44:02;13.67;;;8.57;;
10717;SDS011;13513;42.700;23.124;2023-02-23T05:46:32;12.57;;;9.00;;
10717;SDS011;13513;42.700;23.124;2023-02-23T05:49:03;12.33;;;7.83;;
10717;SDS011;13513;42.700;23.124;2023-02-23T05:51:34;10.40;;;6.63;;
10717;SDS011;13513;42.700;23.124;2023-02-23T05:54:05;10.23;;;7.03;;
10717;SDS011;13513;42.700;23.124;2023-02-23T05:56:36;11.27;;;7.13;;
10717;SDS011;13513;42.700;23.124;2023-02-23T05:59:06;11.67;;;6.53;;
10717;SDS011;13513;42.700;23.124;2023-02-23T06:01:37;10.07;;;6.13;;
10717;SDS011;13513;42.700;23.124;2023-02-23T06:04:08;11.00;;;5.73;;
10717;SDS011;13513;42.700;23.124;2023-02-23T06:06:39;8.47;;;5.73;;
10717;SDS011;13513;42.700;23.124;2023-02-23T06:09:10;8.43;;;5.63;;
10717;SDS011;13513;42.700;23.124;2023-02-23T06:11:41;8.73;;;5.27;;
10717;SDS011;13513;42.700;23.124;2023-02-23T06:14:13;7.60;;;5.00;;
10717;SDS011;13513;42.700;23.124;2023-02-23T06:16:44;5.47;;;4.50;;
10717;SDS011;13513;42.700;23.124;2023-02-23T06:19:14;7.83;;;5.08;;
10717;SDS011;13513;42.700;23.124;2023-02-23T06:21:45;6.70;;;4.97;;
10717;SDS011;13513;42.700;23.124;2023-02-23T06:24:16;5.65;;;4.90;;
10717;SDS011;13513;42.700;23.124;2023-02-23T06:26:47;7.30;;;4.58;;
10717;SDS011;13513;42.700;23.124;2023-02-23T06:29:18;8.13;;;4.92;;
10717;SDS011;13513;42.700;23.124;2023-02-23T06:31:49;7.55;;;4.70;;
10717;SDS011;13513;42.700;23.124;2023-02-23T06:34:24;4.78;;;4.20;;
10717;SDS011;13513;42.700;23.124;2023-02-23T06:36:55;8.00;;;4.55;;
10717;SDS011;13513;42.700;23.124;2023-02-23T06:39:26;5.17;;;4.60;;
10717;SDS011;13513;42.700;23.124;2023-02-23T06:41:57;8.35;;;4.83;;
10717;SDS011;13513;42.700;23.124;2023-02-23T06:44:28;7.85;;;4.28;;
10717;SDS011;13513;42.700;23.124;2023-02-23T06:46:59;7.10;;;4.83;;
10717;SDS011;13513;42.700;23.124;2023-02-23T06:49:31;9.73;;;5.03;;
10717;SDS011;13513;42.700;23.124;2023-02-23T06:52:01;8.85;;;5.90;;
10717;SDS011;13513;42.700;23.124;2023-02-23T06:54:31;7.75;;;5.15;;
10717;SDS011;13513;42.700;23.124;2023-02-23T06:57:02;10.63;;;7.75;;
10717;SDS011;13513;42.700;23.124;2023-02-23T06:59:32;9.28;;;7.28;;
10717;SDS011;13513;42.700;23.124;2023-02-23T07:02:03;8.98;;;6.30;;
10717;SDS011;13513;42.700;23.124;2023-02-23T07:04:37;6.67;;;4.90;;
10717;SDS011;13513;42.700;23.124;2023-02-23T07:07:08;8.87;;;5.37;;
10717;SDS011;13513;42.700;23.124;2023-02-23T07:09:40;9.90;;;5.65;;
10717;SDS011;13513;42.700;23.124;2023-02-23T07:12:10;7.63;;;4.87;;
10717;SDS011;13513;42.700;23.124;2023-02-23T07:14:41;6.93;;;5.20;;
10717;SDS011;13513;42.700;23.124;2023-02-23T07:17:12;7.97;;;5.20;;
10717;SDS011;13513;42.700;23.124;2023-02-23T07:19:43;8.00;;;5.78;;
10717;SDS011;13513;42.700;23.124;2023-02-23T07:22:14;10.87;;;5.50;;
10717;SDS011;13513;42.700;23.124;2023-02-23T07:24:44;7.30;;;5.65;;
10717;SDS011;13513;42.700;23.124;2023-02-23T07:27:15;11.55;;;5.70;;
10717;SDS011;13513;42.700;23.124;2023-02-23T07:29:49;7.15;;;5.28;;
10717;SDS011;13513;42.700;23.124;2023-02-23T07:32:20;9.30;;;5.97;;
10717;SDS011;13513;42.700;23.124;2023-02-23T07:34:51;9.93;;;6.08;;
10717;SDS011;13513;42.700;23.124;2023-02-23T07:37:22;10.18;;;6.08;;
10717;SDS011;13513;42.700;23.124;2023-02-23T07:39:53;8.60;;;6.00;;
10717;SDS011;13513;42.700;23.124;2023-02-23T07:42:24;9.78;;;6.10;;
10717;SDS011;13513;42.700;23.124;2023-02-23T07:44:54;8.68;;;6.25;;
10717;SDS011;13513;42.700;23.124;2023-02-23T07:47:25;9.23;;;5.92;;
10717;SDS011;13513;42.700;23.124;2023-02-23T07:49:56;9.05;;;6.35;;
10717;SDS011;13513;42.700;23.124;2023-02-23T07:52:28;11.85;;;6.62;;
10717;SDS011;13513;42.700;23.124;2023-02-23T07:54:58;10.82;;;6.78;;
10717;SDS011;13513;42.700;23.124;2023-02-23T07:57:29;9.48;;;6.95;;
10717;SDS011;13513;42.700;23.124;2023-02-23T08:00:00;7.72;;;5.95;;
10717;SDS011;13513;42.700;23.124;2023-02-23T08:02:32;9.90;;;6.87;;
10717;SDS011;13513;42.700;23.124;2023-02-23T08:05:03;16.15;;;11.28;;
10717;SDS011;13513;42.700;23.124;2023-02-23T08:07:34;25.37;;;17.95;;
10717;SDS011;13513;42.700;23.124;2023-02-23T08:10:05;11.80;;;6.60;;
10717;SDS011;13513;42.700;23.124;2023-02-23T08:12:38;10.78;;;7.12;;
10717;SDS011;13513;42.700;23.124;2023-02-23T08:15:09;9.83;;;7.03;;
10717;SDS011;13513;42.700;23.124;2023-02-23T08:17:40;10.63;;;7.42;;
10717;SDS011;13513;42.700;23.124;2023-02-23T08:20:10;11.05;;;7.35;;
10717;SDS011;13513;42.700;23.124;2023-02-23T08:22:43;9.25;;;7.50;;
10717;SDS011;13513;42.700;23.124;2023-02-23T08:25:14;11.10;;;7.58;;
10717;SDS011;13513;42.700;23.124;2023-02-23T08:27:46;9.43;;;7.65;;
10717;SDS011;13513;42.700;23.124;2023-02-23T08:30:21;9.78;;;7.30;;
10717;SDS011;13513;42.700;23.124;2023-02-23T08:32:52;11.50;;;8.10;;
10717;SDS011;13513;42.700;23.124;2023-02-23T08:35:24;9.88;;;7.42;;
10717;SDS011;13513;42.700;23.124;2023-02-23T08:37:56;10.13;;;7.65;;
10717;SDS011;13513;42.700;23.124;2023-02-23T08:40:26;12.35;;;8.40;;
10717;SDS011;13513;42.700;23.124;2023-02-23T08:42:57;9.83;;;7.62;;
10717;SDS011;13513;42.700;23.124;2023-02-23T08:45:28;12.10;;;8.15;;
10717;SDS011;13513;42.700;23.124;2023-02-23T08:47:58;11.30;;;7.40;;
10717;SDS011;13513;42.700;23.124;2023-02-23T08:50:29;12.07;;;8.00;;
10717;SDS011;13513;42.700;23.124;2023-02-23T08:52:59;10.20;;;7.80;;
10717;SDS011;13513;42.700;23.124;2023-02-23T08:55:33;9.20;;;7.55;;
10717;SDS011;13513;42.700;23.124;2023-02-23T08:58:06;11.22;;;7.70;;
10717;SDS011;13513;42.700;23.124;2023-02-23T09:00:38;11.15;;;8.15;;
10717;SDS011;13513;42.700;23.124;2023-02-23T09:03:08;16.02;;;8.53;;
10717;SDS011;13513;42.700;23.124;2023-02-23T09:05:39;8.85;;;7.72;;
10717;SDS011;13513;42.700;23.124;2023-02-23T09:08:11;13.72;;;8.08;;
10717;SDS011;13513;42.700;23.124;2023-02-23T09:10:43;11.48;;;7.80;;
10717;SDS011;13513;42.700;23.124;2023-02-23T09:13:13;10.93;;;8.23;;
10717;SDS011;13513;42.700;23.124;2023-02-23T09:15:45;14.45;;;10.78;;
10717;SDS011;13513;42.700;23.124;2023-02-23T09:18:16;10.53;;;7.30;;
10717;SDS011;13513;42.700;23.124;2023-02-23T09:20:46;10.45;;;7.62;;
10717;SDS011;13513;42.700;23.124;2023-02-23T09:23:18;10.60;;;7.85;;
10717;SDS011;13513;42.700;23.124;2023-02-23T09:25:49;11.45;;;7.55;;
10717;SDS011;13513;42.700;23.124;2023-02-23T09:28:20;10.53;;;7.58;;
10717;SDS011;13513;42.700;23.124;2023-02-23T09:30:51;10.03;;;7.78;;
10717;SDS011;13513;42.700;23.124;2023-02-23T09:33:22;12.78;;;7.70;;
10717;SDS011;13513;42.700;23.124;2023-02-23T09:35:52;8.65;;;7.33;;
10717;SDS011;13513;42.700;23.124;2023-02-23T09:38:25;9.95;;;7.20;;
10717;SDS011;13513;42.700;23.124;2023-02-23T09:40:55;11.88;;;7.97;;
10717;SDS011;13513;42.700;23.124;2023-02-23T09:43:40;11.15;;;9.00;;
10717;SDS011;13513;42.700;23.124;2023-02-23T09:46:13;10.28;;;8.08;;
10717;SDS011;13513;42.700;23.124;2023-02-23T09:49:00;10.60;;;8.30;;
10717;SDS011;13513;42.700;23.124;2023-02-23T09:51:36;11.65;;;8.55;;
10717;SDS011;13513;42.700;23.124;2023-02-23T09:54:05;10.78;;;8.50;;
10717;SDS011;13513;42.700;23.124;2023-02-23T09:56:42;13.45;;;8.43;;
10717;SDS011;13513;42.700;23.124;2023-02-23T09:59:13;10.72;;;8.08;;
10717;SDS011;13513;42.700;23.124;2023-02-23T10:04:58;11.38;;;8.68;;
10717;SDS011;13513;42.700;23.124;2023-02-23T10:07:22;14.78;;;8.63;;
10717;SDS011;13513;42.700;23.124;2023-02-23T10:18:19;14.60;;;8.90;;
10717;SDS011;13513;42.700;23.124;2023-02-23T10:23:27;17.15;;;10.00;;
10717;SDS011;13513;42.700;23.124;2023-02-23T10:25:58;14.00;;;9.10;;
10717;SDS011;13513;42.700;23.124;2023-02-23T10:28:32;16.65;;;9.90;;
10717;SDS011;13513;42.700;23.124;2023-02-23T10:31:06;13.78;;;9.43;;
10717;SDS011;13513;42.700;23.124;2023-02-23T10:33:37;13.32;;;9.08;;
10717;SDS011;13513;42.700;23.124;2023-02-23T10:36:11;12.73;;;8.55;;
10717;SDS011;13513;42.700;23.124;2023-02-23T10:38:46;18.90;;;9.05;;
10717;SDS011;13513;42.700;23.124;2023-02-23T10:41:17;12.25;;;8.83;;
10717;SDS011;13513;42.700;23.124;2023-02-23T10:43:48;16.17;;;9.28;;
10717;SDS011;13513;42.700;23.124;2023-02-23T10:46:22;10.80;;;7.62;;
10717;SDS011;13513;42.700;23.124;2023-02-23T10:48:53;11.10;;;8.28;;
10717;SDS011;13513;42.700;23.124;2023-02-23T10:51:26;12.90;;;8.68;;
10717;SDS011;13513;42.700;23.124;2023-02-23T10:53:57;12.13;;;8.00;;
10717;SDS011;13513;42.700;23.124;2023-02-23T10:56:26;10.03;;;8.33;;
10717;SDS011;13513;42.700;23.124;2023-02-23T10:58:57;12.23;;;7.95;;
10717;SDS011;13513;42.700;23.124;2023-02-23T11:01:39;13.70;;;8.60;;
10717;SDS011;13513;42.700;23.124;2023-02-23T11:04:20;13.43;;;8.35;;
10717;SDS011;13513;42.700;23.124;2023-02-23T11:07:08;12.93;;;8.13;;
10717;SDS011;13513;42.700;23.124;2023-02-23T11:09:39;11.20;;;7.75;;
10717;SDS011;13513;42.700;23.124;2023-02-23T11:12:20;11.03;;;7.85;;
10717;SDS011;13513;42.700;23.124;2023-02-23T11:15:24;15.58;;;8.65;;
10717;SDS011;13513;42.700;23.124;2023-02-23T11:17:58;14.45;;;8.30;;
10717;SDS011;13513;42.700;23.124;2023-02-23T11:20:32;11.68;;;7.80;;
10717;SDS011;13513;42.700;23.124;2023-02-23T11:23:11;13.05;;;8.75;;
10717;SDS011;13513;42.700;23.124;2023-02-23T11:25:46;14.90;;;9.03;;
10717;SDS011;13513;42.700;23.124;2023-02-23T11:28:21;12.53;;;8.65;;
10717;SDS011;13513;42.700;23.124;2023-02-23T11:30:52;13.88;;;8.75;;
10717;SDS011;13513;42.700;23.124;2023-02-23T11:33:25;11.33;;;8.30;;
10717;SDS011;13513;42.700;23.124;2023-02-23T11:35:59;10.45;;;8.30;;
10717;SDS011;13513;42.700;23.124;2023-02-23T11:38:45;12.05;;;8.88;;
10717;SDS011;13513;42.700;23.124;2023-02-23T11:41:25;10.70;;;8.25;;
10717;SDS011;13513;42.700;23.124;2023-02-23T11:43:55;13.53;;;8.58;;
10717;SDS011;13513;42.700;23.124;2023-02-23T11:46:26;13.10;;;8.85;;
10717;SDS011;13513;42.700;23.124;2023-02-23T11:48:58;14.07;;;8.98;;
10717;SDS011;13513;42.700;23.124;2023-02-23T11:51:34;14.38;;;9.10;;
10717;SDS011;13513;42.700;23.124;2023-02-23T11:54:04;13.65;;;9.00;;
10717;SDS011;13513;42.700;23.124;2023-02-23T11:56:37;11.85;;;8.60;;
10717;SDS011;13513;42.700;23.124;2023-02-23T11:59:14;15.38;;;9.05;;
10717;SDS011;13513;42.700;23.124;2023-02-23T12:04:34;13.08;;;8.23;;
10717;SDS011;13513;42.700;23.124;2023-02-23T12:10:54;12.68;;;8.98;;
10717;SDS011;13513;42.700;23.124;2023-02-23T12:12:54;14.23;;;8.63;;
10717;SDS011;13513;42.700;23.124;2023-02-23T12:16:01;13.05;;;9.58;;
10717;SDS011;13513;42.700;23.124;2023-02-23T12:21:23;13.95;;;8.50;;
10717;SDS011;13513;42.700;23.124;2023-02-23T12:29:43;18.07;;;10.35;;
10717;SDS011;13513;42.700;23.124;2023-02-23T12:32:25;12.00;;;8.60;;
10717;SDS011;13513;42.700;23.124;2023-02-23T12:34:56;13.45;;;8.38;;
10717;SDS011;13513;42.700;23.124;2023-02-23T12:37:33;13.03;;;7.47;;
10717;SDS011;13513;42.700;23.124;2023-02-23T12:40:16;13.05;;;8.05;;
10717;SDS011;13513;42.700;23.124;2023-02-23T12:45:44;9.58;;;6.97;;
10717;SDS011;13513;42.700;23.124;2023-02-23T12:48:30;12.35;;;7.62;;
10717;SDS011;13513;42.700;23.124;2023-02-23T12:51:32;11.30;;;7.80;;
10717;SDS011;13513;42.700;23.124;2023-02-23T12:54:08;10.05;;;7.05;;
10717;SDS011;13513;42.700;23.124;2023-02-23T12:56:47;16.07;;;10.38;;
10717;SDS011;13513;42.700;23.124;2023-02-23T12:59:41;19.77;;;12.07;;
10717;SDS011;13513;42.700;23.124;2023-02-23T13:02:34;12.00;;;8.83;;
10717;SDS011;13513;42.700;23.124;2023-02-23T13:07:53;12.43;;;8.00;;
10717;SDS011;13513;42.700;23.124;2023-02-23T13:10:36;17.15;;;9.60;;
10717;SDS011;13513;42.700;23.124;2023-02-23T13:21:45;13.15;;;8.00;;
10717;SDS011;13513;42.700;23.124;2023-02-23T13:24:56;15.32;;;7.95;;
10717;SDS011;13513;42.700;23.124;2023-02-23T13:29:27;9.93;;;6.00;;
10717;SDS011;13513;42.700;23.124;2023-02-23T13:32:13;12.23;;;6.22;;
10717;SDS011;13513;42.700;23.124;2023-02-23T13:34:49;9.45;;;6.50;;
10717;SDS011;13513;42.700;23.124;2023-02-23T13:37:35;14.18;;;8.70;;
10717;SDS011;13513;42.700;23.124;2023-02-23T13:42:54;10.03;;;5.45;;
10717;SDS011;13513;42.700;23.124;2023-02-23T13:45:49;10.60;;;6.22;;
10717;SDS011;13513;42.700;23.124;2023-02-23T13:54:16;7.62;;;4.97;;
10717;SDS011;13513;42.700;23.124;2023-02-23T13:56:46;6.22;;;4.83;;
10717;SDS011;13513;42.700;23.124;2023-02-23T13:59:17;10.85;;;5.05;;
10717;SDS011;13513;42.700;23.124;2023-02-23T14:01:50;7.37;;;4.55;;
10717;SDS011;13513;42.700;23.124;2023-02-23T14:04:23;7.55;;;4.72;;
10717;SDS011;13513;42.700;23.124;2023-02-23T14:10:02;9.55;;;5.72;;
10717;SDS011;13513;42.700;23.124;2023-02-23T14:12:38;6.22;;;4.80;;
10717;SDS011;13513;42.700;23.124;2023-02-23T14:15:28;7.55;;;5.15;;
10717;SDS011;13513;42.700;23.124;2023-02-23T14:26:37;10.38;;;6.35;;
10717;SDS011;13513;42.700;23.124;2023-02-23T14:34:51;8.93;;;5.40;;
10717;SDS011;13513;42.700;23.124;2023-02-23T14:37:30;8.05;;;5.12;;
10717;SDS011;13513;42.700;23.124;2023-02-23T14:40:52;7.03;;;5.10;;
10717;SDS011;13513;42.700;23.124;2023-02-23T14:42:45;9.05;;;5.72;;
10717;SDS011;13513;42.700;23.124;2023-02-23T14:45:26;7.35;;;4.72;;
10717;SDS011;13513;42.700;23.124;2023-02-23T14:48:05;7.10;;;5.28;;
10717;SDS011;13513;42.700;23.124;2023-02-23T14:50:40;7.37;;;4.97;;
10717;SDS011;13513;42.700;23.124;2023-02-23T14:53:18;8.10;;;4.47;;
10717;SDS011;13513;42.700;23.124;2023-02-23T14:55:50;9.78;;;4.70;;
10717;SDS011;13513;42.700;23.124;2023-02-23T14:58:25;7.00;;;4.78;;
10717;SDS011;13513;42.700;23.124;2023-02-23T15:00:56;7.92;;;4.87;;
10717;SDS011;13513;42.700;23.124;2023-02-23T15:03:28;7.45;;;4.87;;
10717;SDS011;13513;42.700;23.124;2023-02-23T15:05:59;9.70;;;5.60;;
10717;SDS011;13513;42.700;23.124;2023-02-23T15:08:30;11.10;;;5.12;;
10717;SDS011;13513;42.700;23.124;2023-02-23T15:11:11;11.88;;;5.60;;
10717;SDS011;13513;42.700;23.124;2023-02-23T15:13:49;10.18;;;5.85;;
10717;SDS011;13513;42.700;23.124;2023-02-23T15:16:22;17.00;;;8.75;;
10717;SDS011;13513;42.700;23.124;2023-02-23T15:19:01;8.63;;;6.10;;
10717;SDS011;13513;42.700;23.124;2023-02-23T15:21:33;11.25;;;6.47;;
10717;SDS011;13513;42.700;23.124;2023-02-23T15:24:06;8.28;;;6.62;;
10717;SDS011;13513;42.700;23.124;2023-02-23T15:26:40;10.73;;;7.43;;
10717;SDS011;13513;42.700;23.124;2023-02-23T15:29:13;8.88;;;6.25;;
10717;SDS011;13513;42.700;23.124;2023-02-23T15:31:48;9.40;;;6.07;;
10717;SDS011;13513;42.700;23.124;2023-02-23T15:34:20;11.80;;;5.85;;
10717;SDS011;13513;42.700;23.124;2023-02-23T15:36:58;11.13;;;6.40;;
10717;SDS011;13513;42.700;23.124;2023-02-23T15:39:36;9.87;;;6.63;;
10717;SDS011;13513;42.700;23.124;2023-02-23T15:42:08;7.95;;;6.08;;
10717;SDS011;13513;42.700;23.124;2023-02-23T15:44:41;13.18;;;7.50;;
10717;SDS011;13513;42.700;23.124;2023-02-23T15:47:17;11.60;;;7.20;;
10717;SDS011;13513;42.700;23.124;2023-02-23T15:49:48;14.40;;;7.70;;
10717;SDS011;13513;42.700;23.124;2023-02-23T15:52:21;15.23;;;7.87;;
10717;SDS011;13513;42.700;23.124;2023-02-23T15:54:54;16.77;;;9.10;;
10717;SDS011;13513;42.700;23.124;2023-02-23T15:57:28;13.50;;;7.27;;
10717;SDS011;13513;42.700;23.124;2023-02-23T15:59:58;9.93;;;6.53;;
10717;SDS011;13513;42.700;23.124;2023-02-23T16:02:30;12.93;;;6.97;;
10717;SDS011;13513;42.700;23.124;2023-02-23T16:05:23;10.80;;;6.97;;
10717;SDS011;13513;42.700;23.124;2023-02-23T16:08:00;11.47;;;6.67;;
10717;SDS011;13513;42.700;23.124;2023-02-23T16:10:24;10.35;;;6.72;;
10717;SDS011;13513;42.700;23.124;2023-02-23T16:12:59;9.30;;;6.93;;
10717;SDS011;13513;42.700;23.124;2023-02-23T16:15:32;10.47;;;5.83;;
10717;SDS011;13513;42.700;23.124;2023-02-23T16:18:05;19.07;;;8.80;;
10717;SDS011;13513;42.700;23.124;2023-02-23T16:20:38;13.67;;;8.33;;
10717;SDS011;13513;42.700;23.124;2023-02-23T16:23:11;13.37;;;7.20;;
10717;SDS011;13513;42.700;23.124;2023-02-23T16:25:42;16.63;;;10.60;;
10717;SDS011;13513;42.700;23.124;2023-02-23T16:28:14;16.23;;;8.67;;
10717;SDS011;13513;42.700;23.124;2023-02-23T16:31:01;12.57;;;7.10;;
10717;SDS011;13513;42.700;23.124;2023-02-23T16:38:57;13.60;;;8.40;;
10717;SDS011;13513;42.700;23.124;2023-02-23T16:41:30;13.87;;;8.30;;
10717;SDS011;13513;42.700;23.124;2023-02-23T16:44:04;15.40;;;8.27;;
10717;SDS011;13513;42.700;23.124;2023-02-23T16:49:29;12.30;;;7.87;;
10717;SDS011;13513;42.700;23.124;2023-02-23T16:52:00;13.17;;;7.90;;
10717;SDS011;13513;42.700;23.124;2023-02-23T16:54:34;9.80;;;7.10;;
10717;SDS011;13513;42.700;23.124;2023-02-23T16:57:08;14.77;;;8.40;;
10717;SDS011;13513;42.700;23.124;2023-02-23T16:59:37;10.17;;;7.20;;
10717;SDS011;13513;42.700;23.124;2023-02-23T17:02:09;9.73;;;6.70;;